createdAt,value
2023-05-18T00:00:31.672Z,1.77
2023-05-18T00:05:34.684Z,1.60
2023-05-18T00:10:38.046Z,2.03
2023-05-18T00:15:39.927Z,1.83
2023-05-18T00:20:43.831Z,1.60
2023-05-18T00:25:45.783Z,1.88
2023-05-18T00:30:47.774Z,1.95
2023-05-18T00:35:49.766Z,1.98
2023-05-18T00:40:51.695Z,1.65
2023-05-18T00:45:53.701Z,1.92
2023-05-18T00:50:56.110Z,1.60
2023-05-18T00:55:58.702Z,1.98
2023-05-18T01:01:02.954Z,2.05
2023-05-18T01:06:06.852Z,2.08
2023-05-18T01:11:23.711Z,1.73
2023-05-18T01:16:34.296Z,2.05
2023-05-18T01:22:04.295Z,2.00
2023-05-18T01:27:08.248Z,2.00
2023-05-18T01:32:10.847Z,2.05
2023-05-18T01:37:12.883Z,2.10
2023-05-18T01:42:24.433Z,1.90
2023-05-18T01:47:30.642Z,2.00
2023-05-18T01:52:44.676Z,1.85
2023-05-18T01:57:49.996Z,1.83
2023-05-18T02:02:53.216Z,2.05
2023-05-18T02:07:55.184Z,2.38
2023-05-18T02:12:57.235Z,2.40
2023-05-18T02:17:59.330Z,2.08
2023-05-18T02:23:01.327Z,2.10
2023-05-18T02:28:03.650Z,2.10
2023-05-18T02:33:05.688Z,2.58
2023-05-18T02:38:07.591Z,2.70
2023-05-18T02:43:09.697Z,2.67
2023-05-18T02:48:11.619Z,2.45
2023-05-18T02:53:13.646Z,2.60
2023-05-18T02:58:16.268Z,2.20
2023-05-18T03:03:36.059Z,1.80
2023-05-18T03:08:38.030Z,2.10
2023-05-18T03:13:40.057Z,2.42
2023-05-18T03:18:42.381Z,1.88
2023-05-18T03:23:45.533Z,1.83
2023-05-18T03:28:47.471Z,2.17
2023-05-18T03:33:50.295Z,1.92
2023-05-18T03:38:52.257Z,2.42
2023-05-18T03:43:54.255Z,2.17
2023-05-18T03:48:58.076Z,1.88
2023-05-18T03:54:08.286Z,2.08
2023-05-18T03:59:11.254Z,2.25
2023-05-18T04:04:18.190Z,2.15
2023-05-18T04:09:21.948Z,2.25
2023-05-18T04:14:24.887Z,2.92
2023-05-18T04:19:27.006Z,2.72
2023-05-18T04:24:28.963Z,2.67
2023-05-18T04:29:31.201Z,3.15
2023-05-18T04:34:38.426Z,2.40
2023-05-18T04:39:42.409Z,2.47
2023-05-18T04:44:49.000Z,2.80
2023-05-18T04:49:54.451Z,2.63
2023-05-18T04:54:56.654Z,2.63
2023-05-18T04:59:58.742Z,2.10
2023-05-18T05:05:00.824Z,2.40
2023-05-18T05:10:04.148Z,2.40
2023-05-18T05:15:06.676Z,2.20
2023-05-18T05:20:09.223Z,2.35
2023-05-18T05:25:11.815Z,2.47
2023-05-18T05:30:14.474Z,2.22
2023-05-18T05:35:18.362Z,2.30
2023-05-18T05:40:21.946Z,2.25
2023-05-18T05:45:28.631Z,2.97
2023-05-18T05:50:35.299Z,2.55
2023-05-18T05:55:41.436Z,3.33
2023-05-18T06:00:47.521Z,2.78
2023-05-18T06:05:50.353Z,2.42
2023-05-18T06:10:55.709Z,2.67
2023-05-18T06:15:58.880Z,2.30
2023-05-18T06:21:01.436Z,2.53
2023-05-18T06:26:04.334Z,2.13
2023-05-18T06:31:06.581Z,2.55
2023-05-18T06:36:20.490Z,2.38
2023-05-18T06:41:22.530Z,2.53
2023-05-18T06:46:26.640Z,2.03
2023-05-18T06:51:43.993Z,2.38
2023-05-18T06:56:47.354Z,1.67
2023-05-18T07:01:50.722Z,1.70
2023-05-18T07:06:56.038Z,1.67
2023-05-18T07:11:58.035Z,1.80
2023-05-18T07:16:59.950Z,1.58
2023-05-18T07:22:01.966Z,2.28
2023-05-18T07:27:04.194Z,1.73
2023-05-18T07:32:06.221Z,1.83
2023-05-18T07:37:08.396Z,1.90
2023-05-18T07:42:11.374Z,2.03
2023-05-18T07:47:13.385Z,2.00
2023-05-18T07:52:15.391Z,1.70
2023-05-18T07:57:17.380Z,1.67
2023-05-18T08:02:20.122Z,1.60
2023-05-18T08:07:22.389Z,1.73
2023-05-18T08:12:24.812Z,1.40
2023-05-18T08:17:26.902Z,1.50
2023-05-18T08:22:28.842Z,1.50
2023-05-18T08:27:31.215Z,1.30
2023-05-18T08:32:33.249Z,1.50
2023-05-18T08:37:38.351Z,1.65
2023-05-18T08:42:57.509Z,1.17
2023-05-18T08:48:01.693Z,2.35
2023-05-18T08:53:06.532Z,1.30
2023-05-18T08:58:09.551Z,1.05
2023-05-18T09:03:11.800Z,1.08
2023-05-18T09:08:14.151Z,1.40
2023-05-18T09:13:20.784Z,1.40
2023-05-18T09:18:24.951Z,1.92
2023-05-18T09:23:28.187Z,1.65
2023-05-18T09:28:37.148Z,1.00
2023-05-18T09:33:40.274Z,1.27
2023-05-18T09:38:46.313Z,1.50
2023-05-18T09:43:49.068Z,1.52
2023-05-18T09:48:53.251Z,1.60
2023-05-18T09:53:56.886Z,1.65
2023-05-18T09:59:07.903Z,1.33
2023-05-18T10:04:09.938Z,1.40
2023-05-18T10:09:16.682Z,1.45
2023-05-18T10:14:23.508Z,1.13
2023-05-18T10:19:26.402Z,1.27
2023-05-18T10:24:29.789Z,2.13
2023-05-18T10:29:34.077Z,1.77
2023-05-18T10:34:37.066Z,1.42
2023-05-18T10:39:45.323Z,1.40
2023-05-18T10:44:48.229Z,1.45
2023-05-18T10:49:50.646Z,1.10
2023-05-18T10:54:53.748Z,1.50
2023-05-18T10:59:55.880Z,1.48
2023-05-18T11:04:57.849Z,1.02
2023-05-18T11:10:01.904Z,1.30
2023-05-18T11:15:05.462Z,1.63
2023-05-18T11:20:11.932Z,1.13
2023-05-18T11:25:26.084Z,1.30
2023-05-18T11:30:29.189Z,1.42
2023-05-18T11:35:31.379Z,1.15
2023-05-18T11:40:47.116Z,1.42
2023-05-18T11:45:58.892Z,1.33
2023-05-18T11:51:01.545Z,1.10
2023-05-18T11:56:03.602Z,1.40
2023-05-18T12:01:06.889Z,1.38
2023-05-18T12:06:08.958Z,1.40
2023-05-18T12:11:13.626Z,1.17
2023-05-18T12:16:15.884Z,1.67
2023-05-18T12:21:22.389Z,1.40
2023-05-18T12:26:26.147Z,1.15
2023-05-18T12:31:28.461Z,1.73
2023-05-18T12:36:30.738Z,1.55
2023-05-18T12:41:32.622Z,1.10
2023-05-18T12:46:34.583Z,1.40
2023-05-18T12:51:38.401Z,1.42
2023-05-18T12:56:53.175Z,1.90
2023-05-18T13:01:56.755Z,1.13
2023-05-18T13:06:58.953Z,1.30
2023-05-18T13:12:07.584Z,1.45
2023-05-18T13:17:10.077Z,1.42
2023-05-18T13:22:15.702Z,1.05
2023-05-18T13:27:17.628Z,1.25
2023-05-18T13:32:19.547Z,1.40
2023-05-18T13:37:21.412Z,1.40
2023-05-18T13:42:23.477Z,2.03
2023-05-18T13:47:25.365Z,1.75
2023-05-18T13:52:27.424Z,1.85
2023-05-18T13:57:30.878Z,1.30
2023-05-18T14:02:32.798Z,1.17
2023-05-18T14:07:38.934Z,1.48
2023-05-18T14:12:43.987Z,1.20
2023-05-18T14:17:46.222Z,1.70
2023-05-18T14:22:48.269Z,1.77
2023-05-18T14:27:50.177Z,1.52
2023-05-18T14:32:52.244Z,1.40
2023-05-18T14:37:54.170Z,1.45
2023-05-18T14:42:56.087Z,1.27
2023-05-18T14:47:57.978Z,1.40
2023-05-18T14:52:59.977Z,1.35
2023-05-18T14:58:04.606Z,1.27
2023-05-18T15:03:06.766Z,1.52
2023-05-18T15:08:08.874Z,1.10
2023-05-18T15:13:10.878Z,1.70
2023-05-18T15:18:12.834Z,1.45
2023-05-18T15:23:14.842Z,1.30
2023-05-18T15:28:16.746Z,1.23
2023-05-18T15:33:18.940Z,1.40
2023-05-18T15:38:21.012Z,1.63
2023-05-18T15:43:24.127Z,1.50
2023-05-18T15:48:26.128Z,1.73
2023-05-18T15:53:28.084Z,1.50
2023-05-18T15:58:30.232Z,1.40
2023-05-18T16:03:32.377Z,1.42
2023-05-18T16:08:34.385Z,1.98
2023-05-18T16:13:36.361Z,1.75
2023-05-18T16:18:38.341Z,1.65
2023-05-18T16:23:40.323Z,1.60
2023-05-18T16:28:42.193Z,1.25
2023-05-18T16:33:44.104Z,1.63
2023-05-18T16:38:46.071Z,1.33
2023-05-18T16:43:48.073Z,2.05
2023-05-18T16:48:50.103Z,1.73
2023-05-18T16:53:52.868Z,1.30
2023-05-18T16:58:54.885Z,1.25
2023-05-18T17:03:57.446Z,1.25
2023-05-18T17:08:59.478Z,1.02
2023-05-18T17:14:01.705Z,1.30
2023-05-18T17:19:04.452Z,3.10
2023-05-18T17:24:06.749Z,1.35
2023-05-18T17:29:08.649Z,1.52
2023-05-18T17:34:10.587Z,3.00
2023-05-18T17:39:12.808Z,2.40
2023-05-18T17:44:14.728Z,2.22
2023-05-18T17:49:16.622Z,2.00
2023-05-18T17:54:18.558Z,2.05
2023-05-18T17:59:20.673Z,1.50
2023-05-18T18:04:22.817Z,1.35
2023-05-18T18:09:24.958Z,1.63
2023-05-18T18:14:26.856Z,2.63
2023-05-18T18:19:28.864Z,3.05
2023-05-18T18:24:30.921Z,1.50
2023-05-18T18:29:32.950Z,1.40
2023-05-18T18:34:34.884Z,1.73
2023-05-18T18:39:36.954Z,1.65
2023-05-18T18:44:38.862Z,1.70
2023-05-18T18:49:40.729Z,1.45
2023-05-18T18:54:42.699Z,1.45
2023-05-18T18:59:44.565Z,1.67
2023-05-18T19:04:46.482Z,2.13
2023-05-18T19:09:50.461Z,1.60
2023-05-18T19:14:52.329Z,1.42
2023-05-18T19:19:54.449Z,1.48
2023-05-18T19:24:56.651Z,2.17
2023-05-18T19:30:00.838Z,2.75
2023-05-18T19:35:04.363Z,6.53
2023-05-18T19:40:07.286Z,2.50
2023-05-18T19:45:09.602Z,1.90
2023-05-18T19:50:12.495Z,2.47
2023-05-18T19:55:14.517Z,1.88
2023-05-18T20:00:16.874Z,2.10
2023-05-18T20:05:19.034Z,2.17
2023-05-18T20:10:21.110Z,1.70
2023-05-18T20:15:23.124Z,2.33
2023-05-18T20:20:30.446Z,2.08
2023-05-18T20:25:35.323Z,2.42
2023-05-18T20:30:37.395Z,1.92
2023-05-18T20:35:39.625Z,2.30
2023-05-18T20:40:41.836Z,1.70
2023-05-18T20:45:49.296Z,1.77
2023-05-18T20:50:52.250Z,2.03
2023-05-18T20:55:54.413Z,2.50
2023-05-18T21:00:56.315Z,2.10
2023-05-18T21:05:58.445Z,2.25
2023-05-18T21:11:00.697Z,2.85
2023-05-18T21:16:02.718Z,2.80
2023-05-18T21:21:05.043Z,2.20
2023-05-18T21:26:06.919Z,2.42
2023-05-18T21:31:08.815Z,2.22
2023-05-18T21:36:10.709Z,2.53
2023-05-18T21:41:12.600Z,2.38
2023-05-18T21:46:14.501Z,2.50
2023-05-18T21:51:17.399Z,2.47
2023-05-18T21:56:19.360Z,2.53
2023-05-18T22:01:23.439Z,2.55
2023-05-18T22:06:25.427Z,2.67
2023-05-18T22:11:27.389Z,2.40
2023-05-18T22:16:29.239Z,2.72
2023-05-18T22:21:31.244Z,2.83
2023-05-18T22:26:33.126Z,2.88
2023-05-18T22:31:35.042Z,2.80
2023-05-18T22:36:37.077Z,2.38
2023-05-18T22:41:38.959Z,2.80
2023-05-18T22:46:40.978Z,2.78
2023-05-18T22:51:42.900Z,2.30
2023-05-18T22:56:44.789Z,3.00
2023-05-18T23:01:47.844Z,2.55
2023-05-18T23:06:50.948Z,2.30
2023-05-18T23:11:53.884Z,2.50
2023-05-18T23:16:58.396Z,2.10
2023-05-18T23:22:00.722Z,2.35
2023-05-18T23:27:02.614Z,2.15
2023-05-18T23:32:05.012Z,2.00
2023-05-18T23:37:10.698Z,2.30
2023-05-18T23:42:12.932Z,2.33
2023-05-18T23:47:16.113Z,2.67
2023-05-18T23:52:20.111Z,2.60
2023-05-18T23:57:25.150Z,2.50
